createdAt,value
2022-12-22T00:00:34.813Z,5.60
2022-12-22T00:01:34.819Z,7.40
2022-12-22T00:02:34.895Z,6.40
2022-12-22T00:03:34.835Z,4.80
2022-12-22T00:04:34.755Z,4.40
2022-12-22T00:05:34.740Z,3.10
2022-12-22T00:06:34.762Z,4.80
2022-12-22T00:07:34.701Z,4.90
2022-12-22T00:08:34.723Z,7.30
2022-12-22T00:09:34.699Z,5.40
2022-12-22T00:10:34.739Z,4.30
2022-12-22T00:11:34.694Z,8.90
2022-12-22T00:12:34.654Z,4.70
2022-12-22T00:13:34.651Z,4.70
2022-12-22T00:14:34.628Z,7.50
2022-12-22T00:15:34.620Z,10.00
2022-12-22T00:16:34.663Z,5.20
2022-12-22T00:17:34.630Z,5.10
2022-12-22T00:18:34.580Z,8.60
2022-12-22T00:19:34.573Z,5.40
2022-12-22T00:20:34.590Z,4.80
2022-12-22T00:21:34.563Z,5.00
2022-12-22T00:22:34.560Z,4.90
2022-12-22T00:23:34.536Z,6.60
2022-12-22T00:24:34.521Z,4.40
2022-12-22T00:25:34.517Z,6.30
2022-12-22T00:26:34.516Z,4.50
2022-12-22T00:27:34.483Z,7.90
2022-12-22T00:28:34.472Z,6.70
2022-12-22T00:29:34.497Z,4.70
2022-12-22T00:30:34.514Z,4.40
2022-12-22T00:31:34.464Z,7.60
2022-12-22T00:32:34.431Z,4.10
2022-12-22T00:33:34.438Z,7.00
2022-12-22T00:34:34.421Z,4.60
2022-12-22T00:35:34.402Z,5.70
2022-12-22T00:36:34.554Z,4.60
2022-12-22T00:37:34.373Z,5.00
2022-12-22T00:38:34.361Z,4.50
2022-12-22T00:39:34.351Z,7.60
2022-12-22T00:40:34.334Z,6.10
2022-12-22T00:41:34.340Z,7.30
2022-12-22T00:42:34.344Z,4.20
2022-12-22T00:43:34.324Z,6.30
2022-12-22T00:44:34.294Z,7.00
2022-12-22T00:45:34.485Z,5.00
2022-12-22T00:46:34.283Z,7.60
2022-12-22T00:47:34.278Z,7.20
2022-12-22T00:48:34.275Z,6.90
2022-12-22T00:49:34.243Z,7.30
2022-12-22T00:50:34.275Z,4.20
2022-12-22T00:51:34.277Z,4.80
2022-12-22T00:52:34.210Z,6.00
2022-12-22T00:53:34.193Z,5.60
2022-12-22T00:54:34.192Z,5.00
2022-12-22T00:55:34.180Z,6.70
2022-12-22T00:56:34.244Z,4.60
2022-12-22T00:57:34.176Z,4.70
2022-12-22T00:58:34.219Z,6.70
2022-12-22T00:59:34.137Z,7.10
2022-12-22T01:00:34.118Z,5.00
2022-12-22T01:01:34.298Z,5.00
2022-12-22T01:02:34.280Z,7.20
2022-12-22T01:03:34.323Z,4.40
2022-12-22T01:04:34.076Z,6.40
2022-12-22T01:05:34.185Z,4.80
2022-12-22T01:06:34.086Z,6.10
2022-12-22T01:07:34.048Z,4.00
2022-12-22T01:08:34.057Z,5.60
2022-12-22T01:09:34.044Z,3.90
2022-12-22T01:10:34.016Z,5.00
2022-12-22T01:11:34.005Z,3.50
2022-12-22T01:12:34.025Z,10.70
2022-12-22T01:13:34.004Z,7.00
2022-12-22T01:14:33.979Z,7.70
2022-12-22T01:15:33.992Z,4.70
2022-12-22T01:16:34.051Z,6.80
2022-12-22T01:17:33.951Z,3.60
2022-12-22T01:18:33.983Z,4.90
2022-12-22T01:19:33.917Z,4.70
2022-12-22T01:20:33.956Z,5.10
2022-12-22T01:21:33.924Z,5.50
2022-12-22T01:22:33.887Z,4.70
2022-12-22T01:23:33.921Z,4.20
2022-12-22T01:24:33.872Z,5.00
2022-12-22T01:25:33.888Z,4.90
2022-12-22T01:26:33.886Z,4.60
2022-12-22T01:27:33.835Z,5.30
2022-12-22T01:28:33.891Z,5.90
2022-12-22T01:29:33.838Z,5.70
2022-12-22T01:30:33.918Z,5.10
2022-12-22T01:31:33.963Z,6.90
2022-12-22T01:32:33.816Z,6.00
2022-12-22T01:33:33.790Z,7.20
2022-12-22T01:34:33.807Z,3.80
2022-12-22T01:35:33.796Z,4.70
2022-12-22T01:36:33.746Z,3.60
2022-12-22T01:37:33.819Z,3.50
2022-12-22T01:38:33.781Z,6.60
2022-12-22T01:39:33.788Z,6.50
2022-12-22T01:40:33.741Z,5.30
2022-12-22T01:41:33.828Z,5.30
2022-12-22T01:42:33.667Z,4.60
2022-12-22T01:43:33.692Z,6.30
2022-12-22T01:44:33.724Z,8.20
2022-12-22T01:45:33.659Z,3.90
2022-12-22T01:46:33.731Z,6.80
2022-12-22T01:47:33.617Z,6.70
2022-12-22T01:48:33.629Z,3.60
2022-12-22T01:49:33.600Z,4.80
2022-12-22T01:50:33.592Z,6.30
2022-12-22T01:51:33.595Z,6.60
2022-12-22T01:52:33.568Z,3.40
2022-12-22T01:53:33.573Z,4.10
2022-12-22T01:54:33.552Z,3.80
2022-12-22T01:55:33.536Z,9.10
2022-12-22T01:56:33.560Z,5.70
2022-12-22T01:57:33.507Z,4.70
2022-12-22T01:58:33.508Z,4.30
2022-12-22T01:59:33.595Z,7.60
2022-12-22T02:00:33.479Z,3.70
2022-12-22T02:01:33.641Z,4.30
2022-12-22T02:02:33.646Z,5.20
2022-12-22T02:03:33.475Z,4.50
2022-12-22T02:04:33.428Z,5.00
2022-12-22T02:05:33.418Z,6.10
2022-12-22T02:06:33.444Z,5.50
2022-12-22T02:07:33.427Z,6.80
2022-12-22T02:08:33.395Z,5.60
2022-12-22T02:09:33.387Z,6.50
2022-12-22T02:10:33.367Z,4.10
2022-12-22T02:11:33.358Z,4.30
2022-12-22T02:12:33.374Z,5.60
2022-12-22T02:13:33.330Z,5.50
2022-12-22T02:14:33.334Z,4.50
2022-12-22T02:15:33.330Z,6.50
2022-12-22T02:16:33.365Z,5.40
2022-12-22T02:17:33.326Z,4.50
2022-12-22T02:18:33.292Z,7.20
2022-12-22T02:19:33.320Z,4.50
2022-12-22T02:20:33.276Z,6.30
2022-12-22T02:21:33.256Z,5.80
2022-12-22T02:22:33.243Z,10.60
2022-12-22T02:23:33.239Z,9.30
2022-12-22T02:24:33.227Z,5.10
2022-12-22T02:25:33.239Z,7.70
2022-12-22T02:26:33.250Z,4.90
2022-12-22T02:27:33.184Z,3.80
2022-12-22T02:28:33.195Z,8.20
2022-12-22T02:29:33.190Z,4.00
2022-12-22T02:30:33.161Z,5.50
2022-12-22T02:31:33.170Z,6.30
2022-12-22T02:32:33.135Z,4.80
2022-12-22T02:33:33.150Z,4.30
2022-12-22T02:34:33.112Z,6.70
2022-12-22T02:35:33.117Z,6.10
2022-12-22T02:36:33.129Z,10.10
2022-12-22T02:37:33.085Z,6.40
2022-12-22T02:38:33.073Z,5.40
2022-12-22T02:39:33.066Z,6.10
2022-12-22T02:40:40.597Z,6.00
2022-12-22T02:41:34.049Z,4.60
2022-12-22T02:42:33.033Z,7.30
2022-12-22T02:43:33.026Z,7.40
2022-12-22T02:44:33.023Z,7.50
2022-12-22T02:45:33.001Z,6.80
2022-12-22T02:46:33.011Z,4.80
2022-12-22T02:47:32.991Z,5.40
2022-12-22T02:48:32.958Z,9.60
2022-12-22T02:49:32.969Z,8.10
2022-12-22T02:50:32.949Z,5.60
2022-12-22T02:51:32.929Z,5.20
2022-12-22T02:52:32.917Z,6.50
2022-12-22T02:53:32.935Z,4.80
2022-12-22T02:54:32.901Z,4.40
2022-12-22T02:55:32.881Z,8.30
2022-12-22T02:56:32.871Z,5.80
2022-12-22T02:57:32.860Z,5.60
2022-12-22T02:58:32.867Z,5.70
2022-12-22T02:59:32.861Z,7.60
2022-12-22T03:00:32.835Z,4.40
2022-12-22T03:01:33.027Z,4.40
2022-12-22T03:02:33.133Z,6.80
2022-12-22T03:03:33.007Z,7.50
2022-12-22T03:04:32.787Z,5.50
2022-12-22T03:05:32.816Z,9.20
2022-12-22T03:06:32.775Z,4.40
2022-12-22T03:07:32.752Z,5.40
2022-12-22T03:08:32.754Z,5.40
2022-12-22T03:09:32.746Z,5.20
2022-12-22T03:10:32.730Z,7.40
2022-12-22T03:11:32.733Z,3.80
2022-12-22T03:12:32.712Z,4.90
2022-12-22T03:13:32.685Z,5.50
2022-12-22T03:14:32.683Z,4.70
2022-12-22T03:15:32.682Z,6.00
2022-12-22T03:16:32.717Z,7.80
2022-12-22T03:17:32.665Z,4.20
2022-12-22T03:18:32.648Z,6.00
2022-12-22T03:19:32.633Z,5.70
2022-12-22T03:20:32.612Z,7.40
2022-12-22T03:21:32.629Z,5.30
2022-12-22T03:22:32.585Z,7.50
2022-12-22T03:23:32.582Z,6.80
2022-12-22T03:24:32.573Z,5.60
2022-12-22T03:25:32.554Z,4.30
2022-12-22T03:26:32.548Z,4.10
2022-12-22T03:27:32.554Z,6.20
2022-12-22T03:28:32.526Z,4.80
2022-12-22T03:29:32.515Z,12.40
2022-12-22T03:30:32.496Z,7.10
2022-12-22T03:31:32.565Z,7.20
2022-12-22T03:32:32.492Z,4.30
2022-12-22T03:33:32.464Z,6.10
2022-12-22T03:34:32.458Z,6.60
2022-12-22T03:35:32.459Z,5.80
2022-12-22T03:36:32.436Z,5.60
2022-12-22T03:37:32.444Z,4.00
2022-12-22T03:38:32.417Z,4.40
2022-12-22T03:39:32.402Z,4.70
2022-12-22T03:40:32.408Z,4.70
2022-12-22T03:41:32.383Z,7.70
2022-12-22T03:42:32.403Z,3.70
2022-12-22T03:43:32.358Z,5.30
2022-12-22T03:44:32.350Z,3.70
2022-12-22T03:45:32.352Z,3.80
2022-12-22T03:46:32.433Z,8.50
2022-12-22T03:47:32.316Z,4.80
2022-12-22T03:48:32.325Z,4.60
2022-12-22T03:49:32.313Z,3.40
2022-12-22T03:50:32.282Z,4.00
2022-12-22T03:51:32.263Z,8.20
2022-12-22T03:52:32.257Z,5.40
2022-12-22T03:53:32.237Z,6.60
2022-12-22T03:54:32.240Z,4.00
2022-12-22T03:55:32.243Z,6.20
2022-12-22T03:56:32.208Z,4.40
2022-12-22T03:57:32.199Z,5.30
2022-12-22T03:58:32.205Z,5.40
2022-12-22T03:59:32.166Z,6.90
2022-12-22T04:00:32.194Z,4.80
2022-12-22T04:01:32.370Z,3.20
2022-12-22T04:02:32.263Z,7.20
2022-12-22T04:03:32.228Z,4.00
2022-12-22T04:04:32.128Z,4.90
2022-12-22T04:05:32.124Z,5.60
2022-12-22T04:06:32.094Z,4.30
2022-12-22T04:07:32.091Z,3.80
2022-12-22T04:08:32.102Z,3.70
2022-12-22T04:09:32.082Z,6.90
2022-12-22T04:10:32.071Z,6.00
2022-12-22T04:11:32.038Z,6.10
2022-12-22T04:12:32.029Z,6.90
2022-12-22T04:13:32.020Z,6.10
2022-12-22T04:14:34.651Z,4.30
2022-12-22T04:15:32.013Z,3.50
2022-12-22T04:16:32.040Z,3.10
2022-12-22T04:17:31.997Z,3.60
2022-12-22T04:18:31.969Z,4.30
2022-12-22T04:19:31.960Z,5.00
2022-12-22T04:20:31.962Z,6.00
2022-12-22T04:21:31.956Z,9.80
2022-12-22T04:22:31.955Z,4.40
2022-12-22T04:23:31.909Z,4.70
2022-12-22T04:24:31.899Z,3.40
2022-12-22T04:25:31.888Z,3.50
2022-12-22T04:26:31.868Z,3.40
2022-12-22T04:27:31.921Z,4.10
2022-12-22T04:28:31.898Z,3.80
2022-12-22T04:29:31.856Z,9.00
2022-12-22T04:30:31.836Z,3.60
2022-12-22T04:31:31.949Z,3.90
2022-12-22T04:32:31.808Z,4.80
2022-12-22T04:33:31.822Z,3.20
2022-12-22T04:34:31.779Z,2.70
2022-12-22T04:35:31.770Z,6.30
2022-12-22T04:36:31.769Z,6.10
2022-12-22T04:37:31.749Z,3.80
2022-12-22T04:38:31.757Z,4.40
2022-12-22T04:39:31.726Z,6.50
2022-12-22T04:40:31.717Z,5.10
2022-12-22T04:41:31.720Z,3.70
2022-12-22T04:42:31.707Z,4.40
2022-12-22T04:43:31.699Z,2.60
2022-12-22T04:44:31.677Z,3.40
2022-12-22T04:45:31.684Z,2.90
2022-12-22T04:46:31.684Z,4.70
2022-12-22T04:47:31.661Z,4.20
2022-12-22T04:48:31.631Z,17.90
2022-12-22T04:49:31.629Z,2.60
2022-12-22T04:50:31.601Z,4.40
2022-12-22T04:51:31.589Z,4.30
2022-12-22T04:52:31.591Z,4.20
2022-12-22T04:53:31.580Z,4.60
2022-12-22T04:54:31.559Z,3.60
2022-12-22T04:55:31.573Z,3.70
2022-12-22T04:56:31.540Z,5.50
2022-12-22T04:57:34.327Z,4.20
2022-12-22T04:58:32.515Z,41.00
2022-12-22T04:59:31.498Z,3.60
2022-12-22T05:00:31.488Z,5.30
2022-12-22T05:01:31.635Z,3.40
2022-12-22T05:02:31.576Z,4.40
2022-12-22T05:03:31.539Z,4.10
2022-12-22T05:04:31.451Z,3.50
2022-12-22T05:05:31.451Z,3.20
2022-12-22T05:06:31.447Z,4.30
2022-12-22T05:07:31.420Z,4.10
2022-12-22T05:08:31.398Z,3.90
2022-12-22T05:09:31.405Z,3.50
2022-12-22T05:10:31.401Z,5.20
2022-12-22T05:11:31.369Z,3.10
2022-12-22T05:12:31.352Z,4.10
2022-12-22T05:13:31.366Z,4.50
2022-12-22T05:14:31.335Z,3.80
2022-12-22T05:15:31.350Z,5.00
2022-12-22T05:16:31.343Z,3.90
2022-12-22T05:17:31.322Z,4.50
2022-12-22T05:18:31.286Z,4.60
2022-12-22T05:19:31.279Z,3.30
2022-12-22T05:20:31.273Z,7.40
2022-12-22T05:21:31.291Z,3.90
2022-12-22T05:22:31.247Z,5.00
2022-12-22T05:23:31.254Z,3.50
2022-12-22T05:24:31.223Z,4.00
2022-12-22T05:25:35.074Z,4.10
2022-12-22T05:26:31.194Z,4.00
2022-12-22T05:27:31.213Z,5.20
2022-12-22T05:28:31.173Z,3.00
2022-12-22T05:29:31.163Z,3.90
2022-12-22T05:30:31.187Z,3.40
2022-12-22T05:31:31.208Z,4.30
2022-12-22T05:32:31.162Z,5.50
2022-12-22T05:33:31.129Z,3.30
2022-12-22T05:34:31.107Z,3.30
2022-12-22T05:35:31.103Z,4.00
2022-12-22T05:36:31.090Z,9.80
2022-12-22T05:37:31.100Z,3.20
2022-12-22T05:38:31.076Z,3.20
2022-12-22T05:39:31.054Z,3.10
2022-12-22T05:40:31.049Z,3.40
2022-12-22T05:41:31.030Z,2.50
2022-12-22T05:42:31.041Z,3.70
2022-12-22T05:43:31.004Z,4.80
2022-12-22T05:44:31.005Z,9.70
2022-12-22T05:45:30.994Z,4.30
2022-12-22T05:46:31.086Z,11.10
2022-12-22T05:47:30.981Z,46.80
2022-12-22T05:48:36.991Z,6.30
2022-12-22T05:49:31.980Z,6.80
2022-12-22T05:50:30.929Z,5.30
2022-12-22T05:51:30.955Z,6.20
2022-12-22T05:52:30.906Z,4.70
2022-12-22T05:53:30.905Z,8.30
2022-12-22T05:54:30.885Z,8.10
2022-12-22T05:55:30.896Z,3.70
2022-12-22T05:56:30.879Z,3.90
2022-12-22T05:57:30.866Z,4.60
2022-12-22T05:58:30.841Z,4.30
2022-12-22T05:59:30.837Z,2.20
2022-12-22T06:00:30.849Z,2.80
2022-12-22T06:01:30.850Z,3.80
2022-12-22T06:02:30.931Z,2.80
2022-12-22T06:03:30.969Z,2.60
2022-12-22T06:04:30.864Z,6.10
2022-12-22T06:05:30.800Z,6.40
2022-12-22T06:06:30.775Z,4.40
2022-12-22T06:07:30.756Z,2.60
2022-12-22T06:08:30.727Z,2.70
2022-12-22T06:09:30.728Z,3.30
2022-12-22T06:10:30.710Z,6.60
2022-12-22T06:11:30.714Z,4.30
2022-12-22T06:12:30.689Z,3.70
2022-12-22T06:13:30.675Z,2.80
2022-12-22T06:14:30.667Z,3.70
2022-12-22T06:15:30.664Z,5.60
2022-12-22T06:16:30.693Z,4.40
2022-12-22T06:17:30.629Z,13.70
2022-12-22T06:18:30.630Z,3.50
2022-12-22T06:19:30.607Z,10.00
2022-12-22T06:20:30.590Z,4.20
2022-12-22T06:21:30.606Z,22.30
2022-12-22T06:22:30.600Z,24.90
2022-12-22T06:23:30.563Z,19.80
2022-12-22T06:24:30.552Z,3.20
2022-12-22T06:25:30.545Z,3.80
2022-12-22T06:26:30.530Z,4.50
2022-12-22T06:27:30.547Z,6.20
2022-12-22T06:28:30.500Z,4.00
2022-12-22T06:29:30.499Z,12.20
2022-12-22T06:30:33.661Z,7.00
2022-12-22T06:31:30.576Z,4.10
2022-12-22T06:32:30.482Z,4.20
2022-12-22T06:33:30.450Z,4.80
2022-12-22T06:34:30.442Z,7.00
2022-12-22T06:35:30.417Z,3.10
2022-12-22T06:36:30.410Z,6.60
2022-12-22T06:37:30.442Z,3.20
2022-12-22T06:38:30.447Z,4.00
2022-12-22T06:39:30.390Z,13.70
2022-12-22T06:40:30.366Z,4.30
2022-12-22T06:41:30.357Z,3.80
2022-12-22T06:42:30.356Z,3.80
2022-12-22T06:43:30.367Z,6.30
2022-12-22T06:44:30.323Z,4.80
2022-12-22T06:45:30.332Z,10.00
2022-12-22T06:46:30.383Z,3.70
2022-12-22T06:47:30.295Z,9.70
2022-12-22T06:48:30.302Z,10.30
2022-12-22T06:49:30.299Z,4.40
2022-12-22T06:50:30.256Z,9.30
2022-12-22T06:51:30.256Z,4.90
2022-12-22T06:52:30.234Z,4.80
2022-12-22T06:53:30.246Z,6.70
2022-12-22T06:54:30.222Z,13.40
2022-12-22T06:55:30.220Z,19.70
2022-12-22T06:56:30.250Z,11.10
2022-12-22T06:57:30.180Z,7.30
2022-12-22T06:58:30.192Z,5.80
2022-12-22T06:59:30.163Z,6.60
2022-12-22T07:00:30.188Z,8.10
2022-12-22T07:01:30.258Z,8.50
2022-12-22T07:02:30.270Z,11.60
2022-12-22T07:03:30.268Z,11.50
2022-12-22T07:04:30.129Z,10.40
2022-12-22T07:05:30.089Z,6.50
2022-12-22T07:06:30.092Z,26.10
2022-12-22T07:07:30.074Z,10.90
2022-12-22T07:08:30.061Z,15.80
2022-12-22T07:09:30.067Z,7.00
2022-12-22T07:10:30.044Z,5.60
2022-12-22T07:11:30.029Z,9.70
2022-12-22T07:12:30.010Z,4.50
2022-12-22T07:13:30.002Z,6.50
2022-12-22T07:14:30.013Z,9.90
2022-12-22T07:15:29.973Z,7.50
2022-12-22T07:16:30.011Z,7.00
2022-12-22T07:17:29.958Z,8.80
2022-12-22T07:18:29.975Z,5.60
2022-12-22T07:19:29.946Z,7.20
2022-12-22T07:20:29.942Z,6.70
2022-12-22T07:21:29.932Z,6.80
2022-12-22T07:22:31.109Z,10.40
2022-12-22T07:23:29.921Z,12.50
2022-12-22T07:24:29.892Z,7.60
2022-12-22T07:25:29.867Z,19.10
2022-12-22T07:26:29.886Z,4.20
2022-12-22T07:27:29.852Z,9.10
2022-12-22T07:28:29.834Z,7.30
2022-12-22T07:29:29.816Z,20.00
2022-12-22T07:30:29.805Z,22.40
2022-12-22T07:31:29.901Z,7.60
2022-12-22T07:32:29.801Z,11.90
2022-12-22T07:33:29.789Z,7.70
2022-12-22T07:34:29.764Z,12.90
2022-12-22T07:35:29.762Z,9.80
2022-12-22T07:36:29.793Z,31.80
2022-12-22T07:37:29.738Z,24.40
2022-12-22T07:38:29.725Z,14.90
2022-12-22T07:39:29.714Z,20.80
2022-12-22T07:40:29.697Z,12.40
2022-12-22T07:41:29.692Z,9.10
2022-12-22T07:42:29.692Z,43.80
2022-12-22T07:43:29.716Z,23.10
2022-12-22T07:44:29.654Z,21.50
2022-12-22T07:45:29.645Z,17.00
2022-12-22T07:46:29.707Z,16.50
2022-12-22T07:47:34.969Z,9.70
2022-12-22T07:48:30.606Z,16.90
2022-12-22T07:49:29.629Z,11.70
2022-12-22T07:50:29.588Z,20.40
2022-12-22T07:51:29.604Z,30.90
2022-12-22T07:52:29.564Z,19.20
2022-12-22T07:53:29.637Z,22.80
2022-12-22T07:54:29.534Z,28.00
2022-12-22T07:55:29.526Z,25.10
2022-12-22T07:56:29.525Z,16.70
2022-12-22T07:57:29.548Z,17.40
2022-12-22T07:58:29.517Z,23.20
2022-12-22T07:59:29.494Z,22.00
2022-12-22T08:00:29.478Z,19.40
2022-12-22T08:01:29.548Z,18.80
2022-12-22T08:02:33.811Z,16.30
2022-12-22T08:03:30.461Z,19.30
2022-12-22T08:04:29.659Z,14.40
2022-12-22T08:05:29.426Z,15.10
2022-12-22T08:06:29.433Z,23.10
2022-12-22T08:07:29.420Z,22.60
2022-12-22T08:08:29.402Z,12.70
2022-12-22T08:09:29.386Z,17.00
2022-12-22T08:10:29.396Z,28.80
2022-12-22T08:11:29.408Z,28.50
2022-12-22T08:12:29.410Z,21.50
2022-12-22T08:13:29.448Z,11.10
2022-12-22T08:14:29.323Z,11.10
2022-12-22T08:15:29.329Z,15.10
2022-12-22T08:16:29.410Z,12.50
2022-12-22T08:17:29.288Z,21.90
2022-12-22T08:18:29.297Z,35.30
2022-12-22T08:19:29.281Z,33.40
2022-12-22T08:20:29.262Z,43.00
2022-12-22T08:21:29.256Z,20.40
2022-12-22T08:22:29.242Z,30.60
2022-12-22T08:23:29.247Z,20.20
2022-12-22T08:24:29.210Z,12.90
2022-12-22T08:25:29.199Z,21.90
2022-12-22T08:26:29.190Z,15.30
2022-12-22T08:27:29.178Z,12.80
2022-12-22T08:28:29.186Z,19.10
2022-12-22T08:29:29.208Z,10.50
2022-12-22T08:30:29.157Z,14.50
2022-12-22T08:31:29.282Z,13.40
2022-12-22T08:32:29.150Z,13.20
2022-12-22T08:33:29.119Z,13.40
2022-12-22T08:34:29.135Z,26.20
2022-12-22T08:35:29.097Z,36.60
2022-12-22T08:36:29.082Z,36.60
2022-12-22T08:37:29.056Z,39.50
2022-12-22T08:38:29.054Z,30.10
2022-12-22T08:39:29.074Z,28.20
2022-12-22T08:40:29.050Z,26.10
2022-12-22T08:41:29.028Z,22.40
2022-12-22T08:42:29.004Z,16.20
2022-12-22T08:43:29.045Z,15.60
2022-12-22T08:44:29.029Z,14.30
2022-12-22T08:45:28.971Z,15.80
2022-12-22T08:46:29.008Z,12.90
2022-12-22T08:47:29.065Z,19.80
2022-12-22T08:48:28.944Z,19.20
2022-12-22T08:49:28.933Z,17.50
2022-12-22T08:50:28.930Z,21.40
2022-12-22T08:51:28.910Z,14.20
2022-12-22T08:52:28.895Z,14.60
2022-12-22T08:54:29.898Z,13.70
2022-12-22T08:55:28.867Z,16.20
2022-12-22T08:56:28.857Z,18.90
2022-12-22T08:57:28.836Z,18.60
2022-12-22T08:58:28.843Z,13.40
2022-12-22T08:59:28.812Z,20.80
2022-12-22T09:00:28.913Z,19.00
2022-12-22T09:01:28.855Z,18.00
2022-12-22T09:02:28.962Z,18.60
2022-12-22T09:03:28.850Z,19.30
2022-12-22T09:04:28.777Z,13.60
2022-12-22T09:05:28.749Z,14.50
2022-12-22T09:06:31.991Z,12.60
2022-12-22T09:07:29.751Z,15.50
2022-12-22T09:08:28.711Z,16.20
2022-12-22T09:09:28.705Z,14.60
2022-12-22T09:10:28.699Z,19.00
2022-12-22T09:11:28.702Z,14.20
2022-12-22T09:12:28.677Z,15.90
2022-12-22T09:13:28.692Z,13.80
2022-12-22T09:14:28.660Z,16.40
2022-12-22T09:15:28.670Z,17.60
2022-12-22T09:16:28.736Z,12.80
2022-12-22T09:17:28.646Z,14.50
2022-12-22T09:18:28.607Z,19.50
2022-12-22T09:19:28.613Z,15.30
2022-12-22T09:20:28.615Z,12.90
2022-12-22T09:21:28.605Z,17.10
2022-12-22T09:22:29.033Z,18.60
2022-12-22T09:23:28.569Z,18.40
2022-12-22T09:24:28.559Z,15.70
2022-12-22T09:25:28.553Z,16.60
2022-12-22T09:26:28.534Z,16.60
2022-12-22T09:27:28.510Z,19.70
2022-12-22T09:28:28.504Z,19.00
2022-12-22T09:29:28.501Z,20.90
2022-12-22T09:30:28.482Z,14.20
2022-12-22T09:31:28.554Z,11.30
2022-12-22T09:32:28.455Z,15.80
2022-12-22T09:33:28.457Z,11.60
2022-12-22T09:34:28.447Z,19.00
2022-12-22T09:35:28.441Z,12.40
2022-12-22T09:36:28.451Z,14.90
2022-12-22T09:37:28.421Z,21.20
2022-12-22T09:38:28.391Z,17.80
2022-12-22T09:39:29.423Z,15.20
2022-12-22T09:40:28.371Z,15.70
2022-12-22T09:41:28.355Z,17.40
2022-12-22T09:42:28.360Z,18.90
2022-12-22T09:43:28.334Z,17.90
2022-12-22T09:44:28.333Z,18.90
2022-12-22T09:45:28.325Z,20.80
2022-12-22T09:46:28.381Z,14.40
2022-12-22T09:47:28.290Z,14.90
2022-12-22T09:48:28.304Z,21.10
2022-12-22T09:49:28.296Z,15.80
2022-12-22T09:50:28.285Z,19.90
2022-12-22T09:51:28.243Z,17.50
2022-12-22T09:52:28.235Z,15.70
2022-12-22T09:53:28.227Z,16.10
2022-12-22T09:54:28.221Z,20.10
2022-12-22T09:55:28.226Z,18.10
2022-12-22T09:56:28.202Z,19.90
2022-12-22T09:57:28.179Z,18.70
2022-12-22T09:58:28.176Z,19.10
2022-12-22T09:59:28.164Z,16.10
2022-12-22T10:00:28.151Z,16.20
2022-12-22T10:01:28.386Z,19.60
2022-12-22T10:02:28.179Z,17.40
2022-12-22T10:03:28.211Z,21.70
2022-12-22T10:04:28.103Z,14.70
2022-12-22T10:05:28.121Z,20.60
2022-12-22T10:06:28.095Z,15.40
2022-12-22T10:07:28.095Z,15.70
2022-12-22T10:08:28.070Z,15.40
2022-12-22T10:09:49.018Z,17.20
2022-12-22T10:10:29.041Z,15.90
2022-12-22T10:11:28.024Z,24.40
2022-12-22T10:12:28.030Z,17.30
2022-12-22T10:13:28.036Z,18.00
2022-12-22T10:14:27.995Z,15.90
2022-12-22T10:15:27.989Z,20.70
2022-12-22T10:16:28.041Z,18.90
2022-12-22T10:17:27.991Z,19.40
2022-12-22T10:18:27.975Z,18.80
2022-12-22T10:19:27.939Z,14.00
2022-12-22T10:20:27.928Z,13.40
2022-12-22T10:21:27.919Z,13.70
2022-12-22T10:22:27.916Z,13.40
2022-12-22T10:23:27.912Z,16.50
2022-12-22T10:24:27.914Z,13.50
2022-12-22T10:25:27.897Z,14.00
2022-12-22T10:26:29.686Z,13.00
2022-12-22T10:27:29.371Z,10.70
2022-12-22T10:28:27.863Z,13.90
2022-12-22T10:29:27.859Z,8.40
2022-12-22T10:30:27.840Z,12.90
2022-12-22T10:31:27.899Z,18.60
2022-12-22T10:32:27.843Z,11.40
2022-12-22T10:33:27.795Z,11.20
2022-12-22T10:34:27.782Z,11.40
2022-12-22T10:35:27.784Z,10.90
2022-12-22T10:36:27.785Z,11.20
2022-12-22T10:37:27.748Z,11.50
2022-12-22T10:38:27.749Z,16.40
2022-12-22T10:39:27.719Z,10.90
2022-12-22T10:40:27.721Z,13.10
2022-12-22T10:41:27.731Z,14.10
2022-12-22T10:42:27.701Z,13.40
2022-12-22T10:43:27.709Z,13.30
2022-12-22T10:44:27.674Z,9.90
2022-12-22T10:45:27.658Z,11.50
2022-12-22T10:46:27.739Z,11.70
2022-12-22T10:47:27.655Z,8.40
2022-12-22T10:48:27.630Z,13.60
2022-12-22T10:49:27.617Z,10.10
2022-12-22T10:50:27.601Z,11.80
2022-12-22T10:51:27.587Z,11.90
2022-12-22T10:52:30.620Z,11.40
2022-12-22T10:53:27.651Z,8.80
2022-12-22T10:54:27.558Z,7.30
2022-12-22T10:55:27.581Z,10.70
2022-12-22T10:56:27.610Z,11.10
2022-12-22T10:57:27.554Z,11.10
2022-12-22T10:58:27.522Z,9.30
2022-12-22T10:59:27.524Z,11.10
2022-12-22T11:00:27.527Z,12.00
2022-12-22T11:01:27.615Z,9.70
2022-12-22T11:02:27.792Z,11.10
2022-12-22T11:03:27.547Z,13.00
2022-12-22T11:04:27.451Z,16.20
2022-12-22T11:05:27.466Z,10.10
2022-12-22T11:06:27.430Z,13.60
2022-12-22T11:07:27.412Z,11.00
2022-12-22T11:08:27.421Z,11.00
2022-12-22T11:09:35.635Z,11.70
2022-12-22T11:10:28.411Z,10.10
2022-12-22T11:11:27.369Z,15.90
2022-12-22T11:12:27.375Z,8.20
2022-12-22T11:13:27.371Z,9.10
2022-12-22T11:14:27.340Z,9.70
2022-12-22T11:15:27.359Z,11.20
2022-12-22T11:16:27.395Z,9.40
2022-12-22T11:17:27.315Z,8.40
2022-12-22T11:18:27.302Z,11.20
2022-12-22T11:19:27.291Z,9.30
2022-12-22T11:20:27.295Z,9.10
2022-12-22T11:21:27.280Z,10.70
2022-12-22T11:22:27.266Z,7.80
2022-12-22T11:23:27.244Z,7.00
2022-12-22T11:24:27.232Z,9.20
2022-12-22T11:25:27.239Z,7.40
2022-12-22T11:26:27.241Z,8.10
2022-12-22T11:27:27.202Z,9.00
2022-12-22T11:28:27.198Z,7.90
2022-12-22T11:29:27.176Z,8.10
2022-12-22T11:30:27.177Z,10.00
2022-12-22T11:31:27.273Z,10.10
2022-12-22T11:32:27.155Z,8.40
2022-12-22T11:33:27.147Z,7.60
2022-12-22T11:34:27.139Z,11.30
2022-12-22T11:35:27.107Z,10.00
2022-12-22T11:36:27.130Z,9.90
2022-12-22T11:37:27.093Z,9.40
2022-12-22T11:38:27.095Z,11.50
2022-12-22T11:39:27.068Z,8.80
2022-12-22T11:40:27.068Z,9.90
2022-12-22T11:41:27.088Z,11.20
2022-12-22T11:42:27.058Z,9.00
2022-12-22T11:43:27.046Z,9.80
2022-12-22T11:44:27.020Z,11.80
2022-12-22T11:45:27.012Z,10.30
2022-12-22T11:46:27.063Z,10.40
2022-12-22T11:47:27.017Z,10.00
2022-12-22T11:48:26.968Z,12.00
2022-12-22T11:49:26.958Z,8.10
2022-12-22T11:50:59.856Z,8.40
2022-12-22T11:51:28.640Z,8.20
2022-12-22T11:52:26.957Z,8.20
2022-12-22T11:53:26.922Z,7.60
2022-12-22T11:54:26.915Z,7.90
2022-12-22T11:55:26.899Z,10.50
2022-12-22T11:56:26.909Z,9.50
2022-12-22T11:57:26.904Z,10.50
2022-12-22T11:58:26.866Z,8.60
2022-12-22T11:59:26.877Z,10.50
2022-12-22T12:00:49.005Z,8.20
2022-12-22T12:01:27.846Z,12.90
2022-12-22T12:02:27.025Z,11.70
2022-12-22T12:03:26.884Z,11.40
2022-12-22T12:04:26.847Z,8.90
2022-12-22T12:05:26.788Z,8.90
2022-12-22T12:06:26.778Z,12.10
2022-12-22T12:07:26.928Z,11.10
2022-12-22T12:08:26.777Z,7.90
2022-12-22T12:09:26.765Z,9.80
2022-12-22T12:10:26.745Z,7.10
2022-12-22T12:11:26.721Z,11.50
2022-12-22T12:12:26.718Z,7.20
2022-12-22T12:13:33.059Z,8.90
2022-12-22T12:14:27.713Z,9.10
2022-12-22T12:15:26.680Z,9.00
2022-12-22T12:16:26.703Z,7.30
2022-12-22T12:17:26.664Z,7.90
2022-12-22T12:18:26.676Z,8.10
2022-12-22T12:19:29.078Z,9.40
2022-12-22T12:20:26.649Z,8.90
2022-12-22T12:21:26.610Z,7.80
2022-12-22T12:22:26.609Z,7.40
2022-12-22T12:23:26.605Z,10.70
2022-12-22T12:24:26.591Z,7.40
2022-12-22T12:25:26.589Z,8.10
2022-12-22T12:26:26.567Z,7.10
2022-12-22T12:27:26.536Z,7.00
2022-12-22T12:28:26.541Z,10.10
2022-12-22T12:29:26.548Z,9.00
2022-12-22T12:30:37.871Z,8.60
2022-12-22T12:31:27.522Z,7.70
2022-12-22T12:32:26.492Z,8.90
2022-12-22T12:33:26.488Z,9.10
2022-12-22T12:34:26.496Z,8.50
2022-12-22T12:35:26.461Z,8.30
2022-12-22T12:36:26.470Z,7.70
2022-12-22T12:37:27.036Z,6.70
2022-12-22T12:39:05.657Z,8.00
2022-12-22T12:39:27.434Z,8.00
2022-12-22T12:40:26.412Z,10.20
2022-12-22T12:41:26.420Z,9.80
2022-12-22T12:42:26.384Z,9.40
2022-12-22T12:43:26.382Z,8.10
2022-12-22T12:44:26.397Z,6.80
2022-12-22T12:45:26.390Z,8.50
2022-12-22T12:46:26.371Z,11.30
2022-12-22T12:47:26.328Z,11.60
2022-12-22T12:48:26.345Z,7.70
2022-12-22T12:49:26.659Z,6.50
2022-12-22T12:50:26.332Z,7.30
2022-12-22T12:51:26.308Z,7.50
2022-12-22T12:52:26.284Z,12.80
2022-12-22T12:53:26.281Z,7.00
2022-12-22T12:54:26.255Z,7.50
2022-12-22T12:55:31.549Z,9.50
2022-12-22T12:56:27.264Z,8.20
2022-12-22T12:57:26.207Z,8.00
2022-12-22T12:58:26.210Z,7.90
2022-12-22T12:59:26.196Z,7.70
2022-12-22T13:00:26.211Z,8.50
2022-12-22T13:01:26.250Z,7.80
2022-12-22T13:02:26.461Z,7.30
2022-12-22T13:04:01.127Z,6.40
2022-12-22T13:04:27.231Z,6.60
2022-12-22T13:05:26.124Z,7.50
2022-12-22T13:06:26.119Z,8.50
2022-12-22T13:07:26.129Z,9.30
2022-12-22T13:08:26.120Z,13.10
2022-12-22T13:10:27.495Z,11.40
2022-12-22T13:12:10.062Z,6.20